createdAt,value
2022-11-28T00:00:58.006Z,74.49
2022-11-28T00:03:00.007Z,75.04
2022-11-28T00:05:01.841Z,74.50
2022-11-28T00:07:03.717Z,74.15
2022-11-28T00:09:06.001Z,74.68
2022-11-28T00:11:12.435Z,74.63
2022-11-28T00:13:14.366Z,74.81
2022-11-28T00:15:16.081Z,74.96
2022-11-28T00:17:17.777Z,74.34
2022-11-28T00:19:19.493Z,75.14
2022-11-28T00:21:21.993Z,75.52
2022-11-28T00:23:23.664Z,75.70
2022-11-28T00:25:25.399Z,76.02
2022-11-28T00:27:27.128Z,76.67
2022-11-28T00:29:28.764Z,76.62
2022-11-28T00:31:33.342Z,76.77
2022-11-28T00:33:35.040Z,76.18
2022-11-28T00:35:36.668Z,76.85
2022-11-28T00:37:38.416Z,77.50
2022-11-28T00:39:40.151Z,77.47
2022-11-28T00:41:42.022Z,78.29
2022-11-28T00:43:45.224Z,77.77
2022-11-28T00:45:46.884Z,77.68
2022-11-28T00:47:49.334Z,77.75
2022-11-28T00:49:50.922Z,77.80
2022-11-28T00:51:52.725Z,77.39
2022-11-28T00:53:55.699Z,77.62
2022-11-28T00:55:57.326Z,78.12
2022-11-28T00:57:58.877Z,77.38
2022-11-28T01:00:00.635Z,77.30
2022-11-28T01:02:02.362Z,77.25
2022-11-28T01:04:07.376Z,76.86
2022-11-28T01:06:10.222Z,77.54
2022-11-28T01:08:11.915Z,76.62
2022-11-28T01:10:13.736Z,76.86
2022-11-28T01:12:15.509Z,77.05
2022-11-28T01:14:19.426Z,76.81
2022-11-28T01:16:27.002Z,76.20
2022-11-28T01:18:28.931Z,77.16
2022-11-28T01:20:30.599Z,77.09
2022-11-28T01:22:32.256Z,77.14
2022-11-28T01:24:34.062Z,77.53
2022-11-28T01:26:38.294Z,77.30
2022-11-28T01:28:39.872Z,76.83
2022-11-28T01:30:41.583Z,76.65
2022-11-28T01:32:43.163Z,76.22
2022-11-28T01:34:44.847Z,76.15
2022-11-28T01:36:46.505Z,76.34
2022-11-28T01:38:48.983Z,76.98
2022-11-28T01:40:50.838Z,76.94
2022-11-28T01:42:52.504Z,76.80
2022-11-28T01:44:54.184Z,76.74
2022-11-28T01:46:56.252Z,77.21
2022-11-28T01:49:01.858Z,77.29
2022-11-28T01:51:06.780Z,77.47
2022-11-28T01:53:09.446Z,77.06
2022-11-28T01:55:13.082Z,76.77
2022-11-28T01:57:20.706Z,76.60
2022-11-28T01:59:23.241Z,76.94
2022-11-28T02:01:25.494Z,76.70
2022-11-28T02:03:34.108Z,75.53
2022-11-28T02:05:35.895Z,76.30
2022-11-28T02:07:38.280Z,76.37
2022-11-28T02:09:40.085Z,75.32
2022-11-28T02:12:09.516Z,75.80
2022-11-28T02:14:42.450Z,75.95
2022-11-28T02:16:55.580Z,75.64
2022-11-28T02:19:35.461Z,75.49
2022-11-28T02:22:11.754Z,75.24
2022-11-28T02:24:19.945Z,75.69
2022-11-28T02:27:12.584Z,75.49
2022-11-28T02:29:27.031Z,74.91
2022-11-28T02:32:05.975Z,75.29
2022-11-28T02:34:15.075Z,74.58
2022-11-28T02:36:30.079Z,75.35
2022-11-28T02:38:55.574Z,74.85
2022-11-28T02:41:16.089Z,75.21
2022-11-28T02:43:29.979Z,74.80
2022-11-28T02:45:43.959Z,75.22
2022-11-28T02:47:53.209Z,75.36
2022-11-28T02:49:59.349Z,75.71
2022-11-28T02:52:05.570Z,75.09
2022-11-28T02:54:09.930Z,75.62
2022-11-28T02:56:12.496Z,75.92
2022-11-28T02:58:14.162Z,75.96
2022-11-28T03:00:30.171Z,75.50
2022-11-28T03:02:33.038Z,75.03
2022-11-28T03:05:18.246Z,75.10
2022-11-28T03:07:28.928Z,74.78
2022-11-28T03:09:36.278Z,75.34
2022-11-28T03:12:21.663Z,74.80
2022-11-28T03:14:29.754Z,74.88
2022-11-28T03:16:36.319Z,74.92
2022-11-28T03:18:59.697Z,74.92
2022-11-28T03:21:11.966Z,74.77
2022-11-28T03:23:17.434Z,74.55
2022-11-28T03:25:40.690Z,75.17
2022-11-28T03:27:54.093Z,75.10
2022-11-28T03:30:00.452Z,74.58
2022-11-28T03:32:08.521Z,74.86
2022-11-28T03:34:14.322Z,74.94
2022-11-28T03:36:19.867Z,74.83
2022-11-28T03:38:29.136Z,74.82
2022-11-28T03:40:40.223Z,74.63
2022-11-28T03:42:44.765Z,74.86
2022-11-28T03:45:01.820Z,74.37
2022-11-28T03:47:05.640Z,74.59
2022-11-28T03:49:07.740Z,74.61
2022-11-28T03:51:16.647Z,74.40
2022-11-28T03:53:27.408Z,74.84
2022-11-28T03:55:36.663Z,74.37
2022-11-28T03:57:53.530Z,75.48
2022-11-28T03:59:55.700Z,75.23
2022-11-28T04:02:41.209Z,76.18
2022-11-28T04:05:01.296Z,75.66
2022-11-28T04:07:34.820Z,75.53
2022-11-28T04:09:50.970Z,75.89
2022-11-28T04:11:57.146Z,75.36
2022-11-28T04:14:05.334Z,75.76
2022-11-28T04:16:36.354Z,75.66
2022-11-28T04:19:03.774Z,75.42
2022-11-28T04:21:17.083Z,75.68
2022-11-28T04:23:20.369Z,76.03
2022-11-28T04:25:24.092Z,75.38
2022-11-28T04:27:32.498Z,75.40
2022-11-28T04:29:38.462Z,75.49
2022-11-28T04:31:41.507Z,75.58
2022-11-28T04:33:44.746Z,75.38
2022-11-28T04:35:50.395Z,75.08
2022-11-28T04:37:53.430Z,75.00
2022-11-28T04:39:56.247Z,74.93
2022-11-28T04:42:02.925Z,74.91
2022-11-28T04:44:15.135Z,75.07
2022-11-28T04:46:25.236Z,75.06
2022-11-28T04:48:32.768Z,74.53
2022-11-28T04:51:05.166Z,74.60
2022-11-28T04:53:16.002Z,74.59
2022-11-28T04:55:20.684Z,75.01
2022-11-28T04:57:28.760Z,74.70
2022-11-28T04:59:31.652Z,75.40
2022-11-28T05:01:34.110Z,74.83
2022-11-28T05:03:41.170Z,75.53
2022-11-28T05:05:51.515Z,74.87
2022-11-28T05:07:53.494Z,74.89
2022-11-28T05:09:55.754Z,75.48
2022-11-28T05:11:57.373Z,75.59
2022-11-28T05:13:58.943Z,74.83
2022-11-28T05:16:01.733Z,75.61
2022-11-28T05:18:03.679Z,75.46
2022-11-28T05:20:06.888Z,75.52
2022-11-28T05:22:08.646Z,76.09
2022-11-28T05:24:10.368Z,75.90
2022-11-28T05:26:18.123Z,76.21
2022-11-28T05:28:19.726Z,75.34
2022-11-28T05:30:21.358Z,75.47
2022-11-28T05:32:23.047Z,76.45
2022-11-28T05:34:24.765Z,76.24
2022-11-28T05:36:26.353Z,75.84
2022-11-28T05:38:28.022Z,75.17
2022-11-28T05:40:29.766Z,75.46
2022-11-28T05:42:35.546Z,75.27
2022-11-28T05:44:37.544Z,75.10
2022-11-28T05:46:39.235Z,74.85
2022-11-28T05:48:40.939Z,74.96
2022-11-28T05:50:43.081Z,74.87
2022-11-28T05:52:44.694Z,75.17
2022-11-28T05:54:46.378Z,75.33
2022-11-28T05:56:48.203Z,74.51
2022-11-28T05:58:50.327Z,73.83
2022-11-28T06:00:51.974Z,74.16
2022-11-28T06:02:58.413Z,74.47
2022-11-28T06:05:16.514Z,74.91
2022-11-28T06:07:24.412Z,73.73
2022-11-28T06:09:26.377Z,73.85
2022-11-28T06:11:30.127Z,74.63
2022-11-28T06:13:31.803Z,74.93
2022-11-28T06:15:37.889Z,74.81
2022-11-28T06:17:40.294Z,74.85
2022-11-28T06:19:42.168Z,74.65
2022-11-28T06:21:44.221Z,75.21
2022-11-28T06:23:46.348Z,74.65
2022-11-28T06:25:47.962Z,74.94
2022-11-28T06:27:49.774Z,74.56
2022-11-28T06:29:51.341Z,74.91
2022-11-28T06:31:53.124Z,74.50
2022-11-28T06:33:54.993Z,74.06
2022-11-28T06:36:05.004Z,74.41
2022-11-28T06:38:11.431Z,73.78
2022-11-28T06:40:15.998Z,74.68
2022-11-28T06:42:18.281Z,74.71
2022-11-28T06:44:19.850Z,74.21
2022-11-28T06:46:22.028Z,74.69
2022-11-28T06:48:24.355Z,74.52
2022-11-28T06:50:25.970Z,75.08
2022-11-28T06:52:27.724Z,74.79
2022-11-28T06:54:29.353Z,75.06
2022-11-28T06:56:30.943Z,75.02
2022-11-28T06:58:33.009Z,74.52
2022-11-28T07:00:35.116Z,74.98
2022-11-28T07:02:36.849Z,75.13
2022-11-28T07:04:38.739Z,76.43
2022-11-28T07:06:40.521Z,76.59
2022-11-28T07:08:42.802Z,76.68
2022-11-28T07:10:44.505Z,76.12
2022-11-28T07:12:46.306Z,76.31
2022-11-28T07:14:47.916Z,76.55
2022-11-28T07:16:49.969Z,76.57
2022-11-28T07:18:52.318Z,76.49
2022-11-28T07:20:53.887Z,76.73
2022-11-28T07:22:55.546Z,76.99
2022-11-28T07:24:57.404Z,76.68
2022-11-28T07:26:58.957Z,76.82
2022-11-28T07:29:00.710Z,76.81
2022-11-28T07:31:05.523Z,76.78
2022-11-28T07:33:07.176Z,76.70
2022-11-28T07:35:09.195Z,76.65
2022-11-28T07:37:10.826Z,77.56
2022-11-28T07:39:14.129Z,77.60
2022-11-28T07:41:16.260Z,77.89
2022-11-28T07:43:18.039Z,77.68
2022-11-28T07:45:19.699Z,78.02
2022-11-28T07:47:22.084Z,78.37
2022-11-28T07:49:23.733Z,78.34
2022-11-28T07:51:29.223Z,78.47
2022-11-28T07:53:30.952Z,78.67
2022-11-28T07:55:35.479Z,78.79
2022-11-28T07:57:37.187Z,79.06
2022-11-28T07:59:38.931Z,78.60
2022-11-28T08:01:40.552Z,79.05
2022-11-28T08:03:42.721Z,79.42
2022-11-28T08:05:49.737Z,79.49
2022-11-28T08:07:51.548Z,79.19
2022-11-28T08:09:53.271Z,78.62
2022-11-28T08:11:54.882Z,78.53
2022-11-28T08:13:58.138Z,78.08
2022-11-28T08:16:14.532Z,77.53
2022-11-28T08:18:16.225Z,77.87
2022-11-28T08:20:18.294Z,77.50
2022-11-28T08:22:19.934Z,77.50
2022-11-28T08:24:21.591Z,76.56
2022-11-28T08:26:28.880Z,76.42
2022-11-28T08:28:32.153Z,76.75
2022-11-28T08:30:33.832Z,77.80
2022-11-28T08:32:35.572Z,78.33
2022-11-28T08:34:37.269Z,78.96
2022-11-28T08:36:39.534Z,78.79
2022-11-28T08:38:44.761Z,78.22
2022-11-28T08:40:48.796Z,77.89
2022-11-28T08:42:50.424Z,77.25
2022-11-28T08:44:52.051Z,76.57
2022-11-28T08:46:54.092Z,76.75
2022-11-28T08:48:55.749Z,76.46
2022-11-28T08:50:57.366Z,77.11
2022-11-28T08:53:01.832Z,77.74
2022-11-28T08:55:09.293Z,78.70
2022-11-28T08:57:10.959Z,78.17
2022-11-28T08:59:12.644Z,78.82
2022-11-28T09:01:16.415Z,78.62
2022-11-28T09:03:19.525Z,79.19
2022-11-28T09:05:21.203Z,78.54
2022-11-28T09:07:22.910Z,78.06
2022-11-28T09:09:27.146Z,78.12
2022-11-28T09:11:31.920Z,77.49
2022-11-28T09:13:33.610Z,77.39
2022-11-28T09:15:35.688Z,77.44
2022-11-28T09:17:37.392Z,77.67
2022-11-28T09:19:39.268Z,78.40
2022-11-28T09:21:41.720Z,78.38
2022-11-28T09:23:44.771Z,78.54
2022-11-28T09:25:46.425Z,78.57
2022-11-28T09:27:48.159Z,77.93
2022-11-28T09:29:49.833Z,77.70
2022-11-28T09:31:51.429Z,78.05
2022-11-28T09:33:53.546Z,78.33
2022-11-28T09:35:55.662Z,77.55
2022-11-28T09:37:57.627Z,76.73
2022-11-28T09:40:13.235Z,76.95
2022-11-28T09:42:35.400Z,77.25
2022-11-28T09:44:50.760Z,76.46
2022-11-28T09:46:55.991Z,77.12
2022-11-28T09:49:01.057Z,77.47
2022-11-28T09:51:13.065Z,76.79
2022-11-28T09:53:20.582Z,74.97
2022-11-28T09:55:31.580Z,74.80
2022-11-28T09:57:40.783Z,73.59
2022-11-28T09:59:42.766Z,72.91
2022-11-28T10:02:19.239Z,70.40
2022-11-28T10:04:29.610Z,68.63
2022-11-28T10:06:45.935Z,68.03
2022-11-28T10:09:15.102Z,67.33
2022-11-28T10:11:46.393Z,66.75
2022-11-28T10:14:17.139Z,67.17
2022-11-28T10:16:27.528Z,67.81
2022-11-28T10:18:37.746Z,68.43
2022-11-28T10:20:45.260Z,69.16
2022-11-28T10:22:52.402Z,69.50
2022-11-28T10:24:57.077Z,68.23
2022-11-28T10:26:59.773Z,68.58
2022-11-28T10:29:05.591Z,68.46
2022-11-28T10:31:13.725Z,68.80
2022-11-28T10:33:20.280Z,68.23
2022-11-28T10:35:54.316Z,67.58
2022-11-28T10:37:56.521Z,66.96
2022-11-28T10:40:17.356Z,65.97
2022-11-28T10:42:27.316Z,64.80
2022-11-28T10:44:36.917Z,65.11
2022-11-28T10:47:16.135Z,66.56
2022-11-28T10:49:30.402Z,67.09
2022-11-28T10:51:50.616Z,68.56
2022-11-28T10:53:56.241Z,67.05
2022-11-28T10:56:18.739Z,66.79
2022-11-28T10:58:25.003Z,66.66
2022-11-28T11:00:26.920Z,67.68
2022-11-28T11:02:39.908Z,67.10
2022-11-28T11:04:41.791Z,67.80
2022-11-28T11:07:07.149Z,68.62
2022-11-28T11:09:05.235Z,70.12
2022-11-28T11:11:10.968Z,69.72
2022-11-28T11:13:27.792Z,69.19
2022-11-28T11:15:32.060Z,69.10
2022-11-28T11:17:37.783Z,69.54
2022-11-28T11:19:39.952Z,68.83
2022-11-28T11:21:41.756Z,66.85
2022-11-28T11:23:44.355Z,66.98
2022-11-28T11:25:55.122Z,66.26
2022-11-28T11:28:02.304Z,66.96
2022-11-28T11:30:18.837Z,66.56
2022-11-28T11:32:30.442Z,66.75
2022-11-28T11:34:44.332Z,66.25
2022-11-28T11:36:46.774Z,66.65
2022-11-28T11:38:48.614Z,66.35
2022-11-28T11:40:51.137Z,65.18
2022-11-28T11:42:56.009Z,64.72
2022-11-28T11:45:00.390Z,64.22
2022-11-28T11:47:10.303Z,65.09
2022-11-28T11:49:35.231Z,64.46
2022-11-28T11:51:39.477Z,63.61
2022-11-28T11:53:41.377Z,63.24
2022-11-28T11:55:53.870Z,62.20
2022-11-28T11:58:00.539Z,61.07
2022-11-28T12:00:18.233Z,61.43
2022-11-28T12:02:35.406Z,60.61
2022-11-28T12:04:47.055Z,60.24
2022-11-28T12:06:52.351Z,61.13
2022-11-28T12:09:01.578Z,60.78
2022-11-28T12:11:26.538Z,61.05
2022-11-28T12:13:28.193Z,60.53
2022-11-28T12:15:48.123Z,61.37
2022-11-28T12:18:06.053Z,61.79
2022-11-28T12:20:29.358Z,59.84
2022-11-28T12:23:15.770Z,60.52
2022-11-28T12:25:24.194Z,61.49
2022-11-28T12:27:51.189Z,59.92
2022-11-28T12:30:07.828Z,60.06
2022-11-28T12:32:15.531Z,60.06
2022-11-28T12:34:27.231Z,60.04
2022-11-28T12:37:00.865Z,59.66
2022-11-28T12:39:17.644Z,60.32
2022-11-28T12:41:19.223Z,60.98
2022-11-28T12:43:42.893Z,61.73
2022-11-28T12:45:47.625Z,60.79
2022-11-28T12:48:20.327Z,61.24
2022-11-28T12:50:38.853Z,61.03
2022-11-28T12:52:43.406Z,60.34
2022-11-28T12:54:51.666Z,60.35
2022-11-28T12:57:15.702Z,60.75
2022-11-28T12:59:26.027Z,60.45
2022-11-28T13:01:44.502Z,59.91
2022-11-28T13:04:03.935Z,60.46
2022-11-28T13:06:22.969Z,60.32
2022-11-28T13:08:42.046Z,61.25
2022-11-28T13:11:22.861Z,61.41
2022-11-28T13:13:52.647Z,60.89
2022-11-28T13:16:16.002Z,60.77
2022-11-28T13:18:33.364Z,60.52
2022-11-28T13:20:58.576Z,61.22
2022-11-28T13:23:06.065Z,59.67
2022-11-28T13:25:25.180Z,60.35
2022-11-28T13:27:58.777Z,61.00
2022-11-28T13:30:29.009Z,61.98
2022-11-28T13:32:53.873Z,61.76
2022-11-28T13:34:55.934Z,61.96
2022-11-28T13:39:53.646Z,61.61
2022-11-28T13:42:43.992Z,62.89
2022-11-28T13:44:38.145Z,63.87
2022-11-28T13:46:39.899Z,65.13
2022-11-28T13:51:18.345Z,66.01
2022-11-28T13:53:23.665Z,65.85
2022-11-28T13:55:40.067Z,66.48
2022-11-28T13:57:41.696Z,66.02
2022-11-28T13:59:56.105Z,66.43
2022-11-28T14:02:00.338Z,66.95
2022-11-28T14:04:09.071Z,67.84
2022-11-28T14:06:11.424Z,67.44
2022-11-28T14:08:27.959Z,67.09
2022-11-28T14:10:39.956Z,67.40
2022-11-28T14:12:53.736Z,68.66
2022-11-28T14:15:41.690Z,69.40
2022-11-28T14:17:43.367Z,69.50
2022-11-28T14:20:09.674Z,69.01
2022-11-28T14:22:32.433Z,68.41
2022-11-28T14:24:52.835Z,69.01
2022-11-28T14:26:58.443Z,68.26
2022-11-28T14:29:00.619Z,67.76
2022-11-28T14:31:08.116Z,67.44
2022-11-28T14:33:40.794Z,68.48
2022-11-28T14:35:51.198Z,68.73
2022-11-28T14:37:55.555Z,69.00
2022-11-28T14:39:57.935Z,69.53
2022-11-28T14:42:05.410Z,69.89
2022-11-28T14:44:46.064Z,68.46
2022-11-28T14:47:18.566Z,68.51
2022-11-28T14:49:21.050Z,68.93
2022-11-28T14:51:48.311Z,68.98
2022-11-28T14:53:50.346Z,68.95
2022-11-28T14:55:52.041Z,68.50
2022-11-28T14:57:55.963Z,68.08
2022-11-28T14:59:58.249Z,67.87
2022-11-28T15:02:11.798Z,67.80
2022-11-28T15:04:16.186Z,68.09
2022-11-28T15:06:28.781Z,68.36
2022-11-28T15:08:51.831Z,69.32
2022-11-28T15:11:22.872Z,69.44
2022-11-28T15:13:42.472Z,69.08
2022-11-28T15:15:51.556Z,69.21
2022-11-28T15:17:53.912Z,69.19
2022-11-28T15:19:57.241Z,69.45
2022-11-28T15:22:00.411Z,69.05
2022-11-28T15:24:15.136Z,68.93
2022-11-28T15:26:43.114Z,69.09
2022-11-28T15:28:44.745Z,68.74
2022-11-28T15:30:48.350Z,68.33
2022-11-28T15:32:50.396Z,67.91
2022-11-28T15:35:05.434Z,67.28
2022-11-28T15:37:20.136Z,68.11
2022-11-28T15:39:37.073Z,68.49
2022-11-28T15:41:38.762Z,68.24
2022-11-28T15:43:44.418Z,68.82
2022-11-28T15:45:54.373Z,69.46
2022-11-28T15:47:56.789Z,69.31
2022-11-28T15:50:11.673Z,69.41
2022-11-28T15:52:20.052Z,69.31
2022-11-28T15:54:32.332Z,69.86
2022-11-28T15:56:34.875Z,70.41
2022-11-28T15:58:36.782Z,69.61
2022-11-28T16:00:40.452Z,69.69
2022-11-28T16:02:43.233Z,69.74
2022-11-28T16:04:45.714Z,69.57
2022-11-28T16:06:51.424Z,68.85
2022-11-28T16:08:55.800Z,69.14
2022-11-28T16:10:58.378Z,68.48
2022-11-28T16:13:02.587Z,68.34
2022-11-28T16:15:05.203Z,68.82
2022-11-28T16:17:14.893Z,68.34
2022-11-28T16:19:35.448Z,67.17
2022-11-28T16:22:08.352Z,67.44
2022-11-28T16:24:35.340Z,67.07
2022-11-28T16:26:39.969Z,67.11
2022-11-28T16:28:41.568Z,66.26
2022-11-28T16:30:44.685Z,67.31
2022-11-28T16:32:46.416Z,66.35
2022-11-28T16:34:50.366Z,65.84
2022-11-28T16:36:51.814Z,66.04
2022-11-28T16:39:23.841Z,65.97
2022-11-28T16:41:26.749Z,66.78
2022-11-28T16:43:39.216Z,66.21
2022-11-28T16:45:40.953Z,66.47
2022-11-28T16:47:43.753Z,66.12
2022-11-28T16:50:14.229Z,67.00
2022-11-28T16:52:24.299Z,66.90
2022-11-28T16:54:31.440Z,66.39
2022-11-28T16:56:33.043Z,66.60
2022-11-28T16:58:34.680Z,66.74
2022-11-28T17:00:38.485Z,66.28
2022-11-28T17:02:40.186Z,66.69
2022-11-28T17:04:42.162Z,66.21
2022-11-28T17:06:43.785Z,66.09
2022-11-28T17:08:45.479Z,66.31
2022-11-28T17:10:47.097Z,65.70
2022-11-28T17:12:48.960Z,66.72
2022-11-28T17:14:50.761Z,66.38
2022-11-28T17:16:52.412Z,66.61
2022-11-28T17:18:54.140Z,65.97
2022-11-28T17:20:55.777Z,65.54
2022-11-28T17:22:59.038Z,65.42
2022-11-28T17:25:01.780Z,65.02
2022-11-28T17:27:04.106Z,65.57
2022-11-28T17:29:10.058Z,65.56
2022-11-28T17:31:14.777Z,65.25
2022-11-28T17:33:17.106Z,64.90
2022-11-28T17:35:22.991Z,64.63
2022-11-28T17:37:24.698Z,64.68
2022-11-28T17:39:27.672Z,65.62
2022-11-28T17:41:29.276Z,65.57
2022-11-28T17:43:35.964Z,65.20
2022-11-28T17:45:40.530Z,65.43
2022-11-28T17:47:42.206Z,64.98
2022-11-28T17:49:46.425Z,65.33
2022-11-28T17:51:49.108Z,65.32
2022-11-28T17:53:50.941Z,65.47
2022-11-28T17:55:58.384Z,64.53
2022-11-28T17:58:00.028Z,65.24
2022-11-28T18:00:02.069Z,65.50
2022-11-28T18:02:03.898Z,65.42
2022-11-28T18:04:05.568Z,65.77
2022-11-28T18:06:07.599Z,65.32
2022-11-28T18:08:09.649Z,64.96
2022-11-28T18:10:11.548Z,64.85
2022-11-28T18:12:13.218Z,65.25
2022-11-28T18:14:18.221Z,64.63
2022-11-28T18:16:24.527Z,64.45
2022-11-28T18:18:26.342Z,65.09
2022-11-28T18:20:28.790Z,64.56
2022-11-28T18:22:30.362Z,64.40
2022-11-28T18:24:33.477Z,65.21
2022-11-28T18:26:36.070Z,65.59
2022-11-28T18:28:50.412Z,65.61
2022-11-28T18:30:51.948Z,65.54
2022-11-28T18:32:53.477Z,66.46
2022-11-28T18:34:55.096Z,66.58
2022-11-28T18:37:00.840Z,67.24
2022-11-28T18:39:06.306Z,67.87
2022-11-28T18:41:12.012Z,68.30
2022-11-28T18:43:14.033Z,68.18
2022-11-28T18:45:15.705Z,68.45
2022-11-28T18:47:17.323Z,68.77
2022-11-28T18:49:20.449Z,68.60
2022-11-28T18:51:26.963Z,68.39
2022-11-28T18:53:28.676Z,67.91
2022-11-28T18:55:30.400Z,68.76
2022-11-28T18:57:33.755Z,68.77
2022-11-28T18:59:35.430Z,68.56
2022-11-28T19:01:37.153Z,67.64
2022-11-28T19:03:39.020Z,67.92
2022-11-28T19:05:43.795Z,67.91
2022-11-28T19:07:45.512Z,68.09
2022-11-28T19:09:47.314Z,68.35
2022-11-28T19:11:48.941Z,67.95
2022-11-28T19:13:53.825Z,67.69
2022-11-28T19:15:55.709Z,67.69
2022-11-28T19:17:57.407Z,68.72
2022-11-28T19:19:59.268Z,69.15
2022-11-28T19:22:01.017Z,69.17
2022-11-28T19:24:03.186Z,69.88
2022-11-28T19:26:08.135Z,70.14
2022-11-28T19:28:09.724Z,69.49
2022-11-28T19:30:11.640Z,70.08
2022-11-28T19:32:13.435Z,70.02
2022-11-28T19:34:17.432Z,68.67
2022-11-28T19:36:19.145Z,69.29
2022-11-28T19:38:20.834Z,69.97
2022-11-28T19:40:22.467Z,70.67
2022-11-28T19:42:24.443Z,70.60
2022-11-28T19:44:29.032Z,70.63
2022-11-28T19:46:35.495Z,70.64
2022-11-28T19:48:39.221Z,71.67
2022-11-28T19:50:51.238Z,71.13
2022-11-28T19:52:52.906Z,70.99
2022-11-28T19:54:54.482Z,71.10
2022-11-28T19:56:56.273Z,70.68
2022-11-28T19:58:58.508Z,69.94
2022-11-28T20:01:06.264Z,70.22
2022-11-28T20:03:08.237Z,69.76
2022-11-28T20:05:09.954Z,69.97
2022-11-28T20:07:11.524Z,70.33
2022-11-28T20:09:14.015Z,70.69
2022-11-28T20:11:25.136Z,70.87
2022-11-28T20:13:27.855Z,70.85
2022-11-28T20:15:29.741Z,70.50
2022-11-28T20:17:31.786Z,70.57
2022-11-28T20:19:33.378Z,70.40
2022-11-28T20:21:35.508Z,69.67
2022-11-28T20:23:53.139Z,69.99
2022-11-28T20:25:54.864Z,69.87
2022-11-28T20:27:56.502Z,69.53
2022-11-28T20:29:58.103Z,69.17
2022-11-28T20:31:59.811Z,69.70
2022-11-28T20:34:02.161Z,70.00
2022-11-28T20:36:07.499Z,70.44
2022-11-28T20:38:09.223Z,70.65
2022-11-28T20:40:11.448Z,70.46
2022-11-28T20:42:13.079Z,70.63
2022-11-28T20:44:14.702Z,70.19
2022-11-28T20:46:18.656Z,70.57
2022-11-28T20:48:20.218Z,70.10
2022-11-28T20:50:21.855Z,70.32
2022-11-28T20:52:23.516Z,69.66
2022-11-28T20:54:26.120Z,69.63
2022-11-28T20:56:30.058Z,69.25
2022-11-28T20:58:31.571Z,69.23
2022-11-28T21:00:33.228Z,68.78
2022-11-28T21:02:34.871Z,69.21
2022-11-28T21:04:36.636Z,68.90
2022-11-28T21:06:38.343Z,68.72
2022-11-28T21:08:40.480Z,68.49
2022-11-28T21:10:42.100Z,68.54
2022-11-28T21:12:43.729Z,68.77
2022-11-28T21:14:45.302Z,69.20
2022-11-28T21:16:47.005Z,69.41
2022-11-28T21:18:51.916Z,70.30
2022-11-28T21:20:53.519Z,70.03
2022-11-28T21:22:55.447Z,69.53
2022-11-28T21:24:57.105Z,70.06
2022-11-28T21:26:58.810Z,70.41
2022-11-28T21:29:06.004Z,69.84
2022-11-28T21:31:13.898Z,69.38
2022-11-28T21:33:15.584Z,69.11
2022-11-28T21:35:17.170Z,68.79
2022-11-28T21:37:19.168Z,69.56
2022-11-28T21:39:22.171Z,69.07
2022-11-28T21:41:27.558Z,69.27
2022-11-28T21:43:29.997Z,70.21
2022-11-28T21:45:34.248Z,69.91
2022-11-28T21:47:35.886Z,69.23
2022-11-28T21:49:37.464Z,69.49
2022-11-28T21:51:39.191Z,69.37
2022-11-28T21:53:40.764Z,69.32
2022-11-28T21:55:42.536Z,68.87
2022-11-28T21:57:44.269Z,69.04
2022-11-28T21:59:46.128Z,68.33
2022-11-28T22:01:48.212Z,68.48
2022-11-28T22:03:49.956Z,68.41
2022-11-28T22:05:52.913Z,68.67
2022-11-28T22:07:54.574Z,68.67
2022-11-28T22:09:56.269Z,68.65
2022-11-28T22:11:58.033Z,69.20
2022-11-28T22:14:00.046Z,68.38
2022-11-28T22:16:01.716Z,68.51
2022-11-28T22:18:03.433Z,68.98
2022-11-28T22:20:08.124Z,69.45
2022-11-28T22:22:09.708Z,70.05
2022-11-28T22:24:12.237Z,69.52
2022-11-28T22:26:14.107Z,69.54
2022-11-28T22:28:15.781Z,69.05
2022-11-28T22:30:17.530Z,68.80
2022-11-28T22:32:19.149Z,69.23
2022-11-28T22:34:20.930Z,69.03
2022-11-28T22:36:23.106Z,68.91
2022-11-28T22:38:24.736Z,68.35
2022-11-28T22:40:26.297Z,67.91
2022-11-28T22:42:28.049Z,68.51
2022-11-28T22:44:29.780Z,68.50
2022-11-28T22:46:32.169Z,67.70
2022-11-28T22:48:37.204Z,68.11
2022-11-28T22:50:40.451Z,67.68
2022-11-28T22:52:42.108Z,67.54
2022-11-28T22:54:44.086Z,68.57
2022-11-28T22:56:45.977Z,69.10
2022-11-28T22:58:48.107Z,70.01
2022-11-28T23:00:49.817Z,70.18
2022-11-28T23:02:51.508Z,69.81
2022-11-28T23:04:53.180Z,70.16
2022-11-28T23:06:54.949Z,70.60
2022-11-28T23:09:00.680Z,70.44
2022-11-28T23:11:10.976Z,70.49
2022-11-28T23:13:12.801Z,70.69
2022-11-28T23:15:14.507Z,69.77
2022-11-28T23:17:16.045Z,69.83
2022-11-28T23:19:19.237Z,70.56
2022-11-28T23:21:21.966Z,70.98
2022-11-28T23:23:23.562Z,71.09
2022-11-28T23:25:25.300Z,70.80
2022-11-28T23:27:29.057Z,71.40
2022-11-28T23:29:30.691Z,70.99
2022-11-28T23:31:34.500Z,71.80
2022-11-28T23:33:36.550Z,71.13
2022-11-28T23:35:38.075Z,71.24
2022-11-28T23:37:40.093Z,70.96
2022-11-28T23:39:41.714Z,70.53
2022-11-28T23:41:43.650Z,70.33
2022-11-28T23:43:45.782Z,70.07
2022-11-28T23:45:47.461Z,70.03
2022-11-28T23:47:49.062Z,69.76
2022-11-28T23:49:50.628Z,69.44
2022-11-28T23:51:52.198Z,70.40
2022-11-28T23:53:54.529Z,69.59
2022-11-28T23:56:04.797Z,69.27
2022-11-28T23:58:06.569Z,68.68
